sensor_id;sensor_type;location;lat;lon;timestamp;pressure;altitude;pressure_sealevel;temperature;humidity
19884;BME280;10104;50.732;10.174;2023-04-07T00:01:54;97914.09;;;4.39;60.41
19884;BME280;10104;50.732;10.174;2023-04-07T00:04:16;97909.44;;;4.51;60.00
19884;BME280;10104;50.732;10.174;2023-04-07T00:06:38;97912.63;;;4.54;58.92
19884;BME280;10104;50.732;10.174;2023-04-07T00:09:00;97919.06;;;4.60;59.15
19884;BME280;10104;50.732;10.174;2023-04-07T00:11:22;97912.88;;;4.33;61.26
19884;BME280;10104;50.732;10.174;2023-04-07T00:13:43;97913.25;;;4.38;60.60
19884;BME280;10104;50.732;10.174;2023-04-07T00:16:05;97916.34;;;4.52;59.77
19884;BME280;10104;50.732;10.174;2023-04-07T00:18:27;97904.28;;;4.41;60.32
19884;BME280;10104;50.732;10.174;2023-04-07T00:20:48;97909.75;;;4.30;61.17
19884;BME280;10104;50.732;10.174;2023-04-07T00:23:10;97909.28;;;4.34;60.29
19884;BME280;10104;50.732;10.174;2023-04-07T00:25:31;97909.28;;;4.34;59.98
19884;BME280;10104;50.732;10.174;2023-04-07T00:27:53;97904.19;;;4.15;61.47
19884;BME280;10104;50.732;10.174;2023-04-07T00:30:14;97897.84;;;4.18;60.44
19884;BME280;10104;50.732;10.174;2023-04-07T00:32:36;97911.16;;;4.24;59.92
19884;BME280;10104;50.732;10.174;2023-04-07T00:34:57;97902.94;;;4.19;60.83
19884;BME280;10104;50.732;10.174;2023-04-07T00:37:22;97899.50;;;4.19;60.50
19884;BME280;10104;50.732;10.174;2023-04-07T00:39:45;97904.56;;;4.20;59.88
19884;BME280;10104;50.732;10.174;2023-04-07T00:42:07;97904.13;;;4.25;59.75
19884;BME280;10104;50.732;10.174;2023-04-07T00:44:28;97907.13;;;4.30;59.82
19884;BME280;10104;50.732;10.174;2023-04-07T00:46:50;97897.47;;;4.13;61.37
19884;BME280;10104;50.732;10.174;2023-04-07T00:49:11;97896.53;;;4.04;61.64
19884;BME280;10104;50.732;10.174;2023-04-07T00:51:33;97894.97;;;4.11;60.85
19884;BME280;10104;50.732;10.174;2023-04-07T00:53:55;97900.25;;;4.01;61.43
19884;BME280;10104;50.732;10.174;2023-04-07T00:56:17;97892.59;;;4.18;61.08
19884;BME280;10104;50.732;10.174;2023-04-07T00:58:38;97893.09;;;4.21;60.71
19884;BME280;10104;50.732;10.174;2023-04-07T01:01:07;97886.31;;;4.28;60.40
19884;BME280;10104;50.732;10.174;2023-04-07T01:03:33;97885.19;;;4.31;60.31
19884;BME280;10104;50.732;10.174;2023-04-07T01:06:00;97885.25;;;4.21;60.69
19884;BME280;10104;50.732;10.174;2023-04-07T01:11:36;97881.34;;;4.07;62.39
19884;BME280;10104;50.732;10.174;2023-04-07T01:13:43;97874.66;;;3.95;63.36
19884;BME280;10104;50.732;10.174;2023-04-07T01:16:11;97873.16;;;3.93;63.25
19884;BME280;10104;50.732;10.174;2023-04-07T01:18:34;97871.03;;;4.06;62.33
19884;BME280;10104;50.732;10.174;2023-04-07T01:21:03;97866.63;;;4.06;62.36
19884;BME280;10104;50.732;10.174;2023-04-07T01:23:44;97869.00;;;4.18;62.19
19884;BME280;10104;50.732;10.174;2023-04-07T01:26:33;97868.66;;;4.30;61.61
19884;BME280;10104;50.732;10.174;2023-04-07T01:31:44;97868.69;;;4.21;62.51
19884;BME280;10104;50.732;10.174;2023-04-07T01:34:11;97869.53;;;4.21;63.69
19884;BME280;10104;50.732;10.174;2023-04-07T01:36:33;97864.75;;;4.34;62.82
19884;BME280;10104;50.732;10.174;2023-04-07T01:38:55;97871.31;;;4.38;62.62
19884;BME280;10104;50.732;10.174;2023-04-07T01:41:17;97867.28;;;4.26;66.88
19884;BME280;10104;50.732;10.174;2023-04-07T01:43:39;97863.69;;;4.10;67.36
19884;BME280;10104;50.732;10.174;2023-04-07T01:46:02;97861.06;;;4.27;65.12
19884;BME280;10104;50.732;10.174;2023-04-07T01:48:24;97852.00;;;4.39;63.53
19884;BME280;10104;50.732;10.174;2023-04-07T01:50:47;97856.97;;;4.42;63.69
19884;BME280;10104;50.732;10.174;2023-04-07T01:53:10;97855.91;;;4.53;63.24
19884;BME280;10104;50.732;10.174;2023-04-07T01:55:32;97864.00;;;4.60;62.84
19884;BME280;10104;50.732;10.174;2023-04-07T01:57:54;97858.88;;;4.58;63.57
19884;BME280;10104;50.732;10.174;2023-04-07T02:00:15;97859.25;;;4.63;63.79
19884;BME280;10104;50.732;10.174;2023-04-07T02:02:40;97865.78;;;4.59;65.79
19884;BME280;10104;50.732;10.174;2023-04-07T02:05:05;97866.59;;;4.60;66.23
19884;BME280;10104;50.732;10.174;2023-04-07T02:07:45;97865.88;;;4.67;65.90
19884;BME280;10104;50.732;10.174;2023-04-07T02:10:12;97857.16;;;4.67;65.02
19884;BME280;10104;50.732;10.174;2023-04-07T02:12:36;97852.22;;;4.46;67.88
19884;BME280;10104;50.732;10.174;2023-04-07T02:14:59;97855.66;;;4.64;65.70
19884;BME280;10104;50.732;10.174;2023-04-07T02:17:23;97859.03;;;4.74;65.16
19884;BME280;10104;50.732;10.174;2023-04-07T02:19:46;97851.22;;;4.82;64.37
19884;BME280;10104;50.732;10.174;2023-04-07T02:22:08;97861.19;;;4.79;64.13
19884;BME280;10104;50.732;10.174;2023-04-07T02:24:30;97853.56;;;4.68;68.20
19884;BME280;10104;50.732;10.174;2023-04-07T02:26:51;97851.25;;;4.65;68.45
19884;BME280;10104;50.732;10.174;2023-04-07T02:29:13;97853.09;;;4.72;66.91
19884;BME280;10104;50.732;10.174;2023-04-07T02:31:34;97844.50;;;4.80;66.00
19884;BME280;10104;50.732;10.174;2023-04-07T02:33:56;97843.88;;;4.86;65.32
19884;BME280;10104;50.732;10.174;2023-04-07T02:36:17;97846.38;;;4.96;65.29
19884;BME280;10104;50.732;10.174;2023-04-07T02:38:39;97833.81;;;4.99;64.26
19884;BME280;10104;50.732;10.174;2023-04-07T02:41:00;97838.56;;;5.04;64.14
19884;BME280;10104;50.732;10.174;2023-04-07T02:43:22;97841.28;;;5.20;63.81
19884;BME280;10104;50.732;10.174;2023-04-07T02:45:43;97843.47;;;5.24;64.18
19884;BME280;10104;50.732;10.174;2023-04-07T02:48:05;97846.59;;;5.28;63.93
19884;BME280;10104;50.732;10.174;2023-04-07T02:50:27;97840.50;;;5.27;63.78
19884;BME280;10104;50.732;10.174;2023-04-07T02:52:49;97838.38;;;5.31;63.98
19884;BME280;10104;50.732;10.174;2023-04-07T02:55:11;97836.44;;;5.33;63.78
19884;BME280;10104;50.732;10.174;2023-04-07T02:57:32;97835.97;;;5.38;63.89
19884;BME280;10104;50.732;10.174;2023-04-07T02:59:53;97838.63;;;5.46;63.38
19884;BME280;10104;50.732;10.174;2023-04-07T03:02:17;97832.56;;;5.45;63.51
19884;BME280;10104;50.732;10.174;2023-04-07T03:04:38;97828.63;;;5.49;63.44
19884;BME280;10104;50.732;10.174;2023-04-07T03:07:00;97825.22;;;5.49;63.01
19884;BME280;10104;50.732;10.174;2023-04-07T03:09:22;97828.81;;;5.56;63.35
19884;BME280;10104;50.732;10.174;2023-04-07T03:11:44;97820.66;;;5.59;63.44
19884;BME280;10104;50.732;10.174;2023-04-07T03:14:05;97815.38;;;5.59;63.19
19884;BME280;10104;50.732;10.174;2023-04-07T03:16:27;97828.03;;;5.55;63.58
19884;BME280;10104;50.732;10.174;2023-04-07T03:18:48;97817.69;;;5.54;63.83
19884;BME280;10104;50.732;10.174;2023-04-07T03:21:11;97821.22;;;5.45;66.29
19884;BME280;10104;50.732;10.174;2023-04-07T03:23:33;97817.28;;;5.41;67.33
19884;BME280;10104;50.732;10.174;2023-04-07T03:25:54;97804.19;;;5.49;66.47
19884;BME280;10104;50.732;10.174;2023-04-07T03:28:17;97814.22;;;5.53;67.41
19884;BME280;10104;50.732;10.174;2023-04-07T03:30:39;97808.19;;;5.61;66.37
19884;BME280;10104;50.732;10.174;2023-04-07T03:33:01;97809.56;;;5.39;68.95
19884;BME280;10104;50.732;10.174;2023-04-07T03:35:22;97809.56;;;5.39;69.93
19884;BME280;10104;50.732;10.174;2023-04-07T03:37:44;97803.41;;;5.22;70.23
19884;BME280;10104;50.732;10.174;2023-04-07T03:40:06;97810.41;;;5.06;72.88
19884;BME280;10104;50.732;10.174;2023-04-07T03:42:27;97801.78;;;5.21;70.05
19884;BME280;10104;50.732;10.174;2023-04-07T03:44:49;97809.38;;;5.33;68.98
19884;BME280;10104;50.732;10.174;2023-04-07T03:47:10;97805.13;;;5.40;68.54
19884;BME280;10104;50.732;10.174;2023-04-07T03:49:32;97805.00;;;5.41;67.63
19884;BME280;10104;50.732;10.174;2023-04-07T03:51:53;97801.19;;;5.44;67.33
19884;BME280;10104;50.732;10.174;2023-04-07T03:54:15;97796.50;;;5.55;67.23
19884;BME280;10104;50.732;10.174;2023-04-07T03:56:36;97803.97;;;5.34;69.51
19884;BME280;10104;50.732;10.174;2023-04-07T03:58:58;97800.66;;;5.32;69.94
19884;BME280;10104;50.732;10.174;2023-04-07T04:01:20;97801.00;;;5.29;69.88
19884;BME280;10104;50.732;10.174;2023-04-07T04:03:41;97796.47;;;5.47;68.08
19884;BME280;10104;50.732;10.174;2023-04-07T04:06:03;97796.50;;;5.55;67.32
19884;BME280;10104;50.732;10.174;2023-04-07T04:08:25;97803.13;;;5.67;66.28
19884;BME280;10104;50.732;10.174;2023-04-07T04:10:47;97799.53;;;5.77;65.87
19884;BME280;10104;50.732;10.174;2023-04-07T04:13:08;97809.22;;;5.84;65.55
19884;BME280;10104;50.732;10.174;2023-04-07T04:15:30;97803.81;;;5.86;65.48
19884;BME280;10104;50.732;10.174;2023-04-07T04:17:51;97807.28;;;5.86;66.04
19884;BME280;10104;50.732;10.174;2023-04-07T04:20:13;97798.88;;;5.83;66.42
19884;BME280;10104;50.732;10.174;2023-04-07T04:22:34;97803.38;;;5.90;66.32
19884;BME280;10104;50.732;10.174;2023-04-07T04:24:56;97803.53;;;6.05;65.73
19884;BME280;10104;50.732;10.174;2023-04-07T04:27:18;97800.59;;;6.08;65.89
19884;BME280;10104;50.732;10.174;2023-04-07T04:29:39;97803.59;;;6.29;65.05
19884;BME280;10104;50.732;10.174;2023-04-07T04:32:01;97801.94;;;6.20;65.77
19884;BME280;10104;50.732;10.174;2023-04-07T04:34:22;97803.91;;;6.18;66.08
19884;BME280;10104;50.732;10.174;2023-04-07T04:36:43;97801.78;;;6.22;66.28
19884;BME280;10104;50.732;10.174;2023-04-07T04:39:05;97806.72;;;6.33;66.16
19884;BME280;10104;50.732;10.174;2023-04-07T04:41:27;97807.72;;;6.40;65.31
19884;BME280;10104;50.732;10.174;2023-04-07T04:43:48;97800.47;;;6.26;66.17
19884;BME280;10104;50.732;10.174;2023-04-07T04:46:10;97799.63;;;6.25;66.73
19884;BME280;10104;50.732;10.174;2023-04-07T04:48:31;97801.75;;;6.14;67.07
19884;BME280;10104;50.732;10.174;2023-04-07T04:50:53;97802.78;;;6.29;66.50
19884;BME280;10104;50.732;10.174;2023-04-07T04:53:14;97808.03;;;6.21;66.87
19884;BME280;10104;50.732;10.174;2023-04-07T04:55:36;97811.50;;;6.29;66.43
19884;BME280;10104;50.732;10.174;2023-04-07T04:57:57;97809.19;;;6.50;65.91
19884;BME280;10104;50.732;10.174;2023-04-07T05:00:19;97802.59;;;6.63;65.11
19884;BME280;10104;50.732;10.174;2023-04-07T05:02:41;97804.41;;;6.78;64.86
19884;BME280;10104;50.732;10.174;2023-04-07T05:05:03;97804.72;;;6.83;64.69
19884;BME280;10104;50.732;10.174;2023-04-07T05:07:26;97813.44;;;6.76;65.42
19884;BME280;10104;50.732;10.174;2023-04-07T05:09:47;97813.09;;;6.79;65.25
19884;BME280;10104;50.732;10.174;2023-04-07T05:12:09;97814.59;;;6.89;64.85
19884;BME280;10104;50.732;10.174;2023-04-07T05:14:30;97809.13;;;6.99;64.12
19884;BME280;10104;50.732;10.174;2023-04-07T05:16:52;97807.94;;;7.18;63.24
19884;BME280;10104;50.732;10.174;2023-04-07T05:19:14;97809.03;;;7.40;62.45
19884;BME280;10104;50.732;10.174;2023-04-07T05:21:36;97811.59;;;7.64;60.57
19884;BME280;10104;50.732;10.174;2023-04-07T05:23:57;97810.47;;;7.89;59.48
19884;BME280;10104;50.732;10.174;2023-04-07T05:26:19;97813.13;;;7.81;60.25
19884;BME280;10104;50.732;10.174;2023-04-07T05:28:41;97822.91;;;8.03;58.64
19884;BME280;10104;50.732;10.174;2023-04-07T05:31:03;97812.06;;;8.21;57.38
19884;BME280;10104;50.732;10.174;2023-04-07T05:33:27;97814.16;;;8.34;56.69
19884;BME280;10104;50.732;10.174;2023-04-07T05:35:49;97818.56;;;8.41;56.90
19884;BME280;10104;50.732;10.174;2023-04-07T05:38:11;97812.03;;;8.52;56.57
19884;BME280;10104;50.732;10.174;2023-04-07T05:40:33;97811.34;;;8.58;57.04
19884;BME280;10104;50.732;10.174;2023-04-07T05:42:57;97810.72;;;8.56;57.64
19884;BME280;10104;50.732;10.174;2023-04-07T05:45:19;97813.03;;;8.74;57.76
19884;BME280;10104;50.732;10.174;2023-04-07T05:47:40;97813.84;;;8.74;57.99
19884;BME280;10104;50.732;10.174;2023-04-07T05:50:02;97813.25;;;8.87;58.22
19884;BME280;10104;50.732;10.174;2023-04-07T05:52:24;97809.41;;;8.89;57.85
19884;BME280;10104;50.732;10.174;2023-04-07T05:54:45;97801.91;;;9.16;57.94
19884;BME280;10104;50.732;10.174;2023-04-07T05:57:07;97805.47;;;9.23;58.57
19884;BME280;10104;50.732;10.174;2023-04-07T05:59:29;97807.81;;;9.47;58.20
19884;BME280;10104;50.732;10.174;2023-04-07T06:01:50;97805.63;;;9.80;57.32
19884;BME280;10104;50.732;10.174;2023-04-07T06:04:12;97808.59;;;9.92;57.33
19884;BME280;10104;50.732;10.174;2023-04-07T06:06:33;97803.97;;;10.15;57.14
19884;BME280;10104;50.732;10.174;2023-04-07T06:08:55;97796.31;;;10.20;57.33
19884;BME280;10104;50.732;10.174;2023-04-07T06:11:16;97805.88;;;10.21;57.74
19884;BME280;10104;50.732;10.174;2023-04-07T06:13:38;97799.28;;;10.53;56.82
19884;BME280;10104;50.732;10.174;2023-04-07T06:15:59;97809.41;;;10.49;56.88
19884;BME280;10104;50.732;10.174;2023-04-07T06:18:21;97813.84;;;10.64;56.65
19884;BME280;10104;50.732;10.174;2023-04-07T06:20:43;97815.31;;;10.94;55.50
19884;BME280;10104;50.732;10.174;2023-04-07T06:23:04;97815.47;;;10.86;55.27
19884;BME280;10104;50.732;10.174;2023-04-07T06:25:26;97818.69;;;11.09;55.35
19884;BME280;10104;50.732;10.174;2023-04-07T06:27:48;97813.84;;;11.47;54.09
19884;BME280;10104;50.732;10.174;2023-04-07T06:30:10;97817.19;;;11.28;54.68
19884;BME280;10104;50.732;10.174;2023-04-07T06:32:32;97816.00;;;11.37;55.27
19884;BME280;10104;50.732;10.174;2023-04-07T06:34:54;97817.75;;;11.23;55.56
19884;BME280;10104;50.732;10.174;2023-04-07T06:37:16;97829.78;;;11.54;55.75
19884;BME280;10104;50.732;10.174;2023-04-07T06:39:38;97827.28;;;11.46;55.30
19884;BME280;10104;50.732;10.174;2023-04-07T06:42:00;97822.66;;;11.61;55.01
19884;BME280;10104;50.732;10.174;2023-04-07T06:44:21;97822.31;;;11.70;55.30
19884;BME280;10104;50.732;10.174;2023-04-07T06:46:43;97818.16;;;11.55;55.23
19884;BME280;10104;50.732;10.174;2023-04-07T06:49:07;97822.28;;;11.64;54.67
19884;BME280;10104;50.732;10.174;2023-04-07T06:51:29;97821.50;;;12.11;53.98
19884;BME280;10104;50.732;10.174;2023-04-07T06:53:50;97823.03;;;12.66;52.85
19884;BME280;10104;50.732;10.174;2023-04-07T06:56:12;97817.13;;;12.84;52.05
19884;BME280;10104;50.732;10.174;2023-04-07T06:58:34;97817.34;;;12.82;52.57
19884;BME280;10104;50.732;10.174;2023-04-07T07:00:56;97813.06;;;12.94;52.50
19884;BME280;10104;50.732;10.174;2023-04-07T07:03:17;97825.31;;;12.95;51.95
19884;BME280;10104;50.732;10.174;2023-04-07T07:05:39;97807.13;;;13.25;51.61
19884;BME280;10104;50.732;10.174;2023-04-07T07:08:01;97811.44;;;13.26;51.82
19884;BME280;10104;50.732;10.174;2023-04-07T07:10:22;97814.69;;;13.28;51.17
19884;BME280;10104;50.732;10.174;2023-04-07T07:12:44;97822.66;;;13.22;51.89
19884;BME280;10104;50.732;10.174;2023-04-07T07:15:06;97825.09;;;13.04;51.51
19884;BME280;10104;50.732;10.174;2023-04-07T07:17:27;97824.09;;;13.05;51.73
19884;BME280;10104;50.732;10.174;2023-04-07T07:19:49;97828.34;;;12.66;52.87
19884;BME280;10104;50.732;10.174;2023-04-07T07:22:10;97824.47;;;12.55;52.84
19884;BME280;10104;50.732;10.174;2023-04-07T07:24:32;97825.47;;;12.54;52.55
19884;BME280;10104;50.732;10.174;2023-04-07T07:26:54;97829.72;;;12.29;53.67
19884;BME280;10104;50.732;10.174;2023-04-07T07:29:17;97833.06;;;11.90;54.68
19884;BME280;10104;50.732;10.174;2023-04-07T07:31:38;97830.28;;;11.70;54.17
19884;BME280;10104;50.732;10.174;2023-04-07T07:34:00;97838.53;;;11.82;55.72
19884;BME280;10104;50.732;10.174;2023-04-07T07:36:22;97836.41;;;11.71;54.89
19884;BME280;10104;50.732;10.174;2023-04-07T07:38:43;97836.25;;;11.79;55.13
19884;BME280;10104;50.732;10.174;2023-04-07T07:41:06;97837.31;;;11.50;55.63
19884;BME280;10104;50.732;10.174;2023-04-07T07:43:27;97835.56;;;11.36;56.91
19884;BME280;10104;50.732;10.174;2023-04-07T07:45:49;97843.47;;;11.57;55.98
19884;BME280;10104;50.732;10.174;2023-04-07T07:48:11;97837.59;;;11.68;55.76
19884;BME280;10104;50.732;10.174;2023-04-07T07:50:32;97842.56;;;11.44;55.83
19884;BME280;10104;50.732;10.174;2023-04-07T07:52:54;97840.50;;;11.39;56.11
19884;BME280;10104;50.732;10.174;2023-04-07T07:55:15;97847.69;;;11.45;56.70
19884;BME280;10104;50.732;10.174;2023-04-07T07:57:37;97837.44;;;11.35;56.08
19884;BME280;10104;50.732;10.174;2023-04-07T07:59:58;97840.16;;;11.49;56.47
19884;BME280;10104;50.732;10.174;2023-04-07T08:02:19;97841.19;;;11.82;55.82
19884;BME280;10104;50.732;10.174;2023-04-07T08:04:41;97846.53;;;11.61;56.84
19884;BME280;10104;50.732;10.174;2023-04-07T08:07:03;97848.59;;;12.00;54.49
19884;BME280;10104;50.732;10.174;2023-04-07T08:09:24;97854.00;;;12.20;55.72
19884;BME280;10104;50.732;10.174;2023-04-07T08:11:46;97852.09;;;12.00;55.32
19884;BME280;10104;50.732;10.174;2023-04-07T08:14:11;97854.81;;;12.20;55.15
19884;BME280;10104;50.732;10.174;2023-04-07T08:16:32;97857.81;;;12.04;55.83
19884;BME280;10104;50.732;10.174;2023-04-07T08:18:54;97855.41;;;12.09;54.10
19884;BME280;10104;50.732;10.174;2023-04-07T08:21:15;97854.97;;;12.12;54.46
19884;BME280;10104;50.732;10.174;2023-04-07T08:23:37;97857.31;;;12.41;54.36
19884;BME280;10104;50.732;10.174;2023-04-07T08:25:58;97851.25;;;12.74;53.04
19884;BME280;10104;50.732;10.174;2023-04-07T08:28:20;97857.28;;;12.28;54.83
19884;BME280;10104;50.732;10.174;2023-04-07T08:30:43;97863.69;;;12.60;54.78
19884;BME280;10104;50.732;10.174;2023-04-07T08:33:04;97855.78;;;13.06;53.46
19884;BME280;10104;50.732;10.174;2023-04-07T08:35:26;97861.28;;;12.91;52.91
19884;BME280;10104;50.732;10.174;2023-04-07T08:37:49;97858.59;;;12.78;51.77
19884;BME280;10104;50.732;10.174;2023-04-07T08:40:11;97856.38;;;12.75;52.07
19884;BME280;10104;50.732;10.174;2023-04-07T08:42:34;97865.97;;;12.63;51.96
19884;BME280;10104;50.732;10.174;2023-04-07T08:45:00;97856.78;;;12.05;53.08
19884;BME280;10104;50.732;10.174;2023-04-07T08:47:24;97856.22;;;12.23;53.97
19884;BME280;10104;50.732;10.174;2023-04-07T08:49:47;97865.28;;;12.41;53.50
19884;BME280;10104;50.732;10.174;2023-04-07T08:52:13;97865.16;;;12.69;53.33
19884;BME280;10104;50.732;10.174;2023-04-07T08:54:37;97865.56;;;12.73;51.57
19884;BME280;10104;50.732;10.174;2023-04-07T08:56:58;97862.09;;;12.92;52.52
19884;BME280;10104;50.732;10.174;2023-04-07T08:59:22;97866.22;;;13.21;51.84
19884;BME280;10104;50.732;10.174;2023-04-07T09:01:47;97862.53;;;13.02;51.11
19884;BME280;10104;50.732;10.174;2023-04-07T09:04:09;97866.63;;;13.38;51.16
19884;BME280;10104;50.732;10.174;2023-04-07T09:06:31;97857.66;;;13.19;51.95
19884;BME280;10104;50.732;10.174;2023-04-07T09:08:53;97856.22;;;13.16;51.63
19884;BME280;10104;50.732;10.174;2023-04-07T09:11:15;97869.09;;;13.32;50.06
19884;BME280;10104;50.732;10.174;2023-04-07T09:13:37;97860.91;;;13.21;49.76
19884;BME280;10104;50.732;10.174;2023-04-07T09:16:00;97871.53;;;13.08;50.17
19884;BME280;10104;50.732;10.174;2023-04-07T09:18:22;97865.81;;;13.30;48.75
19884;BME280;10104;50.732;10.174;2023-04-07T09:21:00;97855.91;;;13.70;49.87
19884;BME280;10104;50.732;10.174;2023-04-07T09:23:35;97866.09;;;14.00;49.58
19884;BME280;10104;50.732;10.174;2023-04-07T09:26:18;97850.22;;;13.67;49.08
19884;BME280;10104;50.732;10.174;2023-04-07T09:28:41;97861.44;;;13.82;48.69
19884;BME280;10104;50.732;10.174;2023-04-07T09:31:03;97847.91;;;13.84;49.87
19884;BME280;10104;50.732;10.174;2023-04-07T09:33:29;97855.09;;;13.76;49.06
19884;BME280;10104;50.732;10.174;2023-04-07T09:35:51;97866.34;;;13.78;48.22
19884;BME280;10104;50.732;10.174;2023-04-07T09:38:16;97848.75;;;13.77;47.94
19884;BME280;10104;50.732;10.174;2023-04-07T09:40:37;97852.97;;;13.98;48.21
19884;BME280;10104;50.732;10.174;2023-04-07T09:43:00;97854.72;;;13.53;46.70
19884;BME280;10104;50.732;10.174;2023-04-07T09:45:26;97858.00;;;13.55;48.76
19884;BME280;10104;50.732;10.174;2023-04-07T09:47:55;97846.53;;;13.68;48.40
19884;BME280;10104;50.732;10.174;2023-04-07T09:50:30;97847.72;;;13.78;47.91
19884;BME280;10104;50.732;10.174;2023-04-07T09:52:53;97843.59;;;13.83;46.67
19884;BME280;10104;50.732;10.174;2023-04-07T09:55:15;97838.56;;;13.61;47.48
19884;BME280;10104;50.732;10.174;2023-04-07T09:57:38;97846.75;;;13.53;48.21
19884;BME280;10104;50.732;10.174;2023-04-07T09:59:59;97836.06;;;13.80;46.41
19884;BME280;10104;50.732;10.174;2023-04-07T10:02:21;97836.22;;;13.91;48.14
19884;BME280;10104;50.732;10.174;2023-04-07T10:04:43;97836.91;;;14.25;47.88
19884;BME280;10104;50.732;10.174;2023-04-07T10:07:05;97838.22;;;14.47;45.81
19884;BME280;10104;50.732;10.174;2023-04-07T10:09:27;97830.91;;;14.36;46.47
19884;BME280;10104;50.732;10.174;2023-04-07T10:11:50;97829.25;;;14.73;46.47
19884;BME280;10104;50.732;10.174;2023-04-07T10:14:12;97825.91;;;15.09;45.32
19884;BME280;10104;50.732;10.174;2023-04-07T10:16:36;97820.00;;;14.75;45.30
19884;BME280;10104;50.732;10.174;2023-04-07T10:18:58;97830.78;;;14.62;46.55
19884;BME280;10104;50.732;10.174;2023-04-07T10:21:21;97829.06;;;14.74;44.53
19884;BME280;10104;50.732;10.174;2023-04-07T10:23:58;97831.69;;;15.06;44.73
19884;BME280;10104;50.732;10.174;2023-04-07T10:26:28;97825.06;;;15.58;43.38
19884;BME280;10104;50.732;10.174;2023-04-07T10:29:07;97827.91;;;15.13;42.10
19884;BME280;10104;50.732;10.174;2023-04-07T10:31:30;97830.03;;;14.80;44.64
19884;BME280;10104;50.732;10.174;2023-04-07T10:33:52;97828.94;;;14.87;44.20
19884;BME280;10104;50.732;10.174;2023-04-07T10:36:17;97819.22;;;14.75;42.69
19884;BME280;10104;50.732;10.174;2023-04-07T10:38:38;97823.22;;;14.84;42.52
19884;BME280;10104;50.732;10.174;2023-04-07T10:43:55;97821.34;;;15.59;42.07
19884;BME280;10104;50.732;10.174;2023-04-07T10:46:17;97818.63;;;15.65;42.61
19884;BME280;10104;50.732;10.174;2023-04-07T10:48:38;97818.63;;;15.84;42.62
19884;BME280;10104;50.732;10.174;2023-04-07T10:53:25;97812.22;;;16.03;40.76
19884;BME280;10104;50.732;10.174;2023-04-07T10:55:53;97810.97;;;16.35;40.67
19884;BME280;10104;50.732;10.174;2023-04-07T11:03:37;97818.44;;;16.45;40.45
19884;BME280;10104;50.732;10.174;2023-04-07T11:06:03;97813.00;;;16.93;39.43
19884;BME280;10104;50.732;10.174;2023-04-07T11:08:33;97812.31;;;16.97;39.90
19884;BME280;10104;50.732;10.174;2023-04-07T11:10:55;97806.81;;;16.69;38.28
19884;BME280;10104;50.732;10.174;2023-04-07T11:13:16;97807.22;;;16.96;38.91
19884;BME280;10104;50.732;10.174;2023-04-07T11:15:38;97801.00;;;16.72;39.69
19884;BME280;10104;50.732;10.174;2023-04-07T11:18:16;97814.97;;;16.56;40.26
19884;BME280;10104;50.732;10.174;2023-04-07T11:23:07;97805.19;;;16.50;39.65
19884;BME280;10104;50.732;10.174;2023-04-07T11:25:28;97800.59;;;16.27;40.46
19884;BME280;10104;50.732;10.174;2023-04-07T11:27:51;97806.00;;;16.39;40.43
19884;BME280;10104;50.732;10.174;2023-04-07T11:30:14;97791.75;;;16.56;39.19
19884;BME280;10104;50.732;10.174;2023-04-07T11:32:36;97798.81;;;16.51;37.61
19884;BME280;10104;50.732;10.174;2023-04-07T11:34:57;97795.94;;;16.23;38.63
19884;BME280;10104;50.732;10.174;2023-04-07T11:37:20;97790.88;;;16.74;39.92
19884;BME280;10104;50.732;10.174;2023-04-07T11:39:42;97796.38;;;16.49;37.09
19884;BME280;10104;50.732;10.174;2023-04-07T11:42:06;97800.38;;;16.29;37.74
19884;BME280;10104;50.732;10.174;2023-04-07T11:44:28;97803.91;;;16.71;38.27
19884;BME280;10104;50.732;10.174;2023-04-07T11:46:59;97796.34;;;16.79;39.12
19884;BME280;10104;50.732;10.174;2023-04-07T11:49:25;97794.94;;;16.35;39.04
19884;BME280;10104;50.732;10.174;2023-04-07T11:52:00;97795.84;;;16.59;39.46
19884;BME280;10104;50.732;10.174;2023-04-07T11:54:22;97794.38;;;16.75;39.78
19884;BME280;10104;50.732;10.174;2023-04-07T11:56:46;97793.03;;;17.07;39.74
19884;BME280;10104;50.732;10.174;2023-04-07T11:59:07;97787.22;;;17.33;38.42
19884;BME280;10104;50.732;10.174;2023-04-07T12:01:39;97779.84;;;17.40;37.03
19884;BME280;10104;50.732;10.174;2023-04-07T12:04:05;97787.63;;;17.89;37.31
19884;BME280;10104;50.732;10.174;2023-04-07T12:06:35;97788.28;;;18.36;38.60
19884;BME280;10104;50.732;10.174;2023-04-07T12:08:59;97782.44;;;19.01;36.95
19884;BME280;10104;50.732;10.174;2023-04-07T12:11:21;97789.34;;;19.30;34.30
19884;BME280;10104;50.732;10.174;2023-04-07T12:13:42;97779.88;;;20.04;34.03
19884;BME280;10104;50.732;10.174;2023-04-07T12:16:04;97784.66;;;20.73;32.21
19884;BME280;10104;50.732;10.174;2023-04-07T12:18:27;97789.56;;;21.50;33.46
19884;BME280;10104;50.732;10.174;2023-04-07T12:20:48;97779.22;;;21.84;31.00
19884;BME280;10104;50.732;10.174;2023-04-07T12:23:10;97779.41;;;22.29;31.09
19884;BME280;10104;50.732;10.174;2023-04-07T12:25:32;97773.69;;;22.10;29.11
19884;BME280;10104;50.732;10.174;2023-04-07T12:27:53;97791.84;;;21.31;30.31
19884;BME280;10104;50.732;10.174;2023-04-07T12:30:15;97787.94;;;20.80;31.68
19884;BME280;10104;50.732;10.174;2023-04-07T12:32:36;97793.31;;;21.49;31.18
19884;BME280;10104;50.732;10.174;2023-04-07T12:34:58;97784.41;;;21.11;32.25
19884;BME280;10104;50.732;10.174;2023-04-07T12:37:19;97781.56;;;20.91;31.60
19884;BME280;10104;50.732;10.174;2023-04-07T12:39:41;97789.78;;;20.47;31.30
19884;BME280;10104;50.732;10.174;2023-04-07T12:42:02;97784.16;;;20.81;30.70
19884;BME280;10104;50.732;10.174;2023-04-07T12:44:25;97786.78;;;20.44;31.93
19884;BME280;10104;50.732;10.174;2023-04-07T12:46:46;97787.09;;;20.47;31.71
19884;BME280;10104;50.732;10.174;2023-04-07T12:49:08;97790.59;;;20.26;31.88
19884;BME280;10104;50.732;10.174;2023-04-07T12:51:30;97784.25;;;20.10;31.92